sensor_id;sensor_type;location;lat;lon;timestamp;P1;durP1;ratioP1;P2;durP2;ratioP2
49340;SDS011;35209;51.050;13.678;2023-06-22T00:00:00;6.60;;;6.15;;
49340;SDS011;35209;51.050;13.678;2023-06-22T00:05:12;6.55;;;6.15;;
49340;SDS011;35209;51.050;13.678;2023-06-22T00:10:14;7.10;;;6.60;;
49340;SDS011;35209;51.050;13.678;2023-06-22T00:15:15;7.30;;;6.80;;
49340;SDS011;35209;51.050;13.678;2023-06-22T00:20:17;12.20;;;11.45;;
49340;SDS011;35209;51.050;13.678;2023-06-22T00:25:19;13.63;;;12.68;;
49340;SDS011;35209;51.050;13.678;2023-06-22T00:30:21;10.80;;;10.10;;
49340;SDS011;35209;51.050;13.678;2023-06-22T00:35:23;9.65;;;8.95;;
49340;SDS011;35209;51.050;13.678;2023-06-22T00:40:31;10.45;;;9.75;;
49340;SDS011;35209;51.050;13.678;2023-06-22T00:45:33;9.88;;;9.18;;
49340;SDS011;35209;51.050;13.678;2023-06-22T00:50:35;9.23;;;8.52;;
49340;SDS011;35209;51.050;13.678;2023-06-22T00:55:38;10.02;;;9.43;;
49340;SDS011;35209;51.050;13.678;2023-06-22T01:00:45;11.27;;;10.45;;
49340;SDS011;35209;51.050;13.678;2023-06-22T01:05:47;9.73;;;9.02;;
49340;SDS011;35209;51.050;13.678;2023-06-22T01:10:53;10.70;;;9.90;;
49340;SDS011;35209;51.050;13.678;2023-06-22T01:16:23;10.02;;;9.32;;
49340;SDS011;35209;51.050;13.678;2023-06-22T01:21:30;9.98;;;9.20;;
49340;SDS011;35209;51.050;13.678;2023-06-22T01:26:41;8.30;;;7.80;;
49340;SDS011;35209;51.050;13.678;2023-06-22T01:31:50;8.30;;;7.72;;
49340;SDS011;35209;51.050;13.678;2023-06-22T01:36:53;8.52;;;7.93;;
49340;SDS011;35209;51.050;13.678;2023-06-22T01:41:56;8.65;;;8.15;;
49340;SDS011;35209;51.050;13.678;2023-06-22T01:46:58;8.50;;;7.97;;
49340;SDS011;35209;51.050;13.678;2023-06-22T01:52:00;8.65;;;8.05;;
49340;SDS011;35209;51.050;13.678;2023-06-22T01:57:02;8.70;;;8.10;;
49340;SDS011;35209;51.050;13.678;2023-06-22T02:02:06;8.70;;;8.10;;
49340;SDS011;35209;51.050;13.678;2023-06-22T02:07:12;8.60;;;8.03;;
49340;SDS011;35209;51.050;13.678;2023-06-22T02:12:22;8.82;;;8.07;;
49340;SDS011;35209;51.050;13.678;2023-06-22T02:17:26;8.55;;;7.95;;
49340;SDS011;35209;51.050;13.678;2023-06-22T02:22:28;8.60;;;8.00;;
49340;SDS011;35209;51.050;13.678;2023-06-22T02:27:30;8.95;;;8.45;;
49340;SDS011;35209;51.050;13.678;2023-06-22T02:32:31;8.30;;;7.70;;
49340;SDS011;35209;51.050;13.678;2023-06-22T02:37:36;9.27;;;8.60;;
49340;SDS011;35209;51.050;13.678;2023-06-22T02:42:43;8.55;;;7.95;;
49340;SDS011;35209;51.050;13.678;2023-06-22T02:47:45;8.30;;;7.80;;
49340;SDS011;35209;51.050;13.678;2023-06-22T02:52:47;9.35;;;8.75;;
49340;SDS011;35209;51.050;13.678;2023-06-22T02:57:49;8.02;;;7.53;;
49340;SDS011;35209;51.050;13.678;2023-06-22T03:02:54;9.10;;;8.50;;
49340;SDS011;35209;51.050;13.678;2023-06-22T03:07:56;9.25;;;8.70;;
49340;SDS011;35209;51.050;13.678;2023-06-22T03:12:58;10.02;;;9.07;;
49340;SDS011;35209;51.050;13.678;2023-06-22T03:18:00;8.40;;;7.90;;
49340;SDS011;35209;51.050;13.678;2023-06-22T03:23:02;10.15;;;9.35;;
49340;SDS011;35209;51.050;13.678;2023-06-22T03:28:04;11.05;;;10.07;;
49340;SDS011;35209;51.050;13.678;2023-06-22T03:33:05;10.82;;;10.13;;
49340;SDS011;35209;51.050;13.678;2023-06-22T03:38:08;9.43;;;8.82;;
49340;SDS011;35209;51.050;13.678;2023-06-22T03:43:09;9.65;;;9.05;;
49340;SDS011;35209;51.050;13.678;2023-06-22T03:48:11;9.80;;;9.07;;
49340;SDS011;35209;51.050;13.678;2023-06-22T03:53:13;9.40;;;8.80;;
49340;SDS011;35209;51.050;13.678;2023-06-22T03:58:16;9.85;;;9.25;;
49340;SDS011;35209;51.050;13.678;2023-06-22T04:03:20;10.35;;;9.65;;
49340;SDS011;35209;51.050;13.678;2023-06-22T04:08:22;10.38;;;9.70;;
49340;SDS011;35209;51.050;13.678;2023-06-22T04:13:24;11.23;;;10.32;;
49340;SDS011;35209;51.050;13.678;2023-06-22T04:18:25;10.95;;;10.20;;
49340;SDS011;35209;51.050;13.678;2023-06-22T04:23:27;12.23;;;11.15;;
49340;SDS011;35209;51.050;13.678;2023-06-22T04:28:29;10.90;;;10.10;;
49340;SDS011;35209;51.050;13.678;2023-06-22T04:33:34;12.35;;;11.45;;
49340;SDS011;35209;51.050;13.678;2023-06-22T04:38:36;11.73;;;10.80;;
49340;SDS011;35209;51.050;13.678;2023-06-22T04:43:37;10.63;;;9.73;;
49340;SDS011;35209;51.050;13.678;2023-06-22T04:48:39;11.23;;;10.43;;
49340;SDS011;35209;51.050;13.678;2023-06-22T04:53:41;11.20;;;10.50;;
49340;SDS011;35209;51.050;13.678;2023-06-22T04:58:44;12.43;;;11.27;;
49340;SDS011;35209;51.050;13.678;2023-06-22T05:03:45;11.35;;;10.52;;
49340;SDS011;35209;51.050;13.678;2023-06-22T05:08:47;11.65;;;10.85;;
49340;SDS011;35209;51.050;13.678;2023-06-22T05:13:49;10.38;;;9.57;;
49340;SDS011;35209;51.050;13.678;2023-06-22T05:18:54;11.07;;;10.25;;
49340;SDS011;35209;51.050;13.678;2023-06-22T05:23:57;11.43;;;10.73;;
49340;SDS011;35209;51.050;13.678;2023-06-22T05:29:02;10.02;;;9.43;;
49340;SDS011;35209;51.050;13.678;2023-06-22T05:34:04;11.23;;;10.35;;
49340;SDS011;35209;51.050;13.678;2023-06-22T05:39:13;11.38;;;10.65;;
49340;SDS011;35209;51.050;13.678;2023-06-22T05:44:15;10.32;;;9.63;;
49340;SDS011;35209;51.050;13.678;2023-06-22T05:49:17;11.43;;;10.35;;
49340;SDS011;35209;51.050;13.678;2023-06-22T05:54:19;10.43;;;9.73;;
49340;SDS011;35209;51.050;13.678;2023-06-22T05:59:20;8.82;;;8.23;;
49340;SDS011;35209;51.050;13.678;2023-06-22T06:04:22;10.15;;;9.45;;
49340;SDS011;35209;51.050;13.678;2023-06-22T06:09:24;10.15;;;9.45;;
49340;SDS011;35209;51.050;13.678;2023-06-22T06:14:26;9.27;;;8.73;;
49340;SDS011;35209;51.050;13.678;2023-06-22T06:19:28;9.73;;;8.95;;
49340;SDS011;35209;51.050;13.678;2023-06-22T06:24:30;9.15;;;8.50;;
49340;SDS011;35209;51.050;13.678;2023-06-22T06:29:32;9.30;;;8.43;;
49340;SDS011;35209;51.050;13.678;2023-06-22T06:34:34;8.35;;;7.65;;
49340;SDS011;35209;51.050;13.678;2023-06-22T06:39:36;8.35;;;7.63;;
49340;SDS011;35209;51.050;13.678;2023-06-22T06:44:38;8.27;;;7.60;;
49340;SDS011;35209;51.050;13.678;2023-06-22T06:49:40;7.45;;;6.85;;
49340;SDS011;35209;51.050;13.678;2023-06-22T06:54:42;7.85;;;7.25;;
49340;SDS011;35209;51.050;13.678;2023-06-22T06:59:43;6.85;;;6.32;;
49340;SDS011;35209;51.050;13.678;2023-06-22T07:04:45;7.40;;;6.90;;
49340;SDS011;35209;51.050;13.678;2023-06-22T07:09:48;7.85;;;7.30;;
49340;SDS011;35209;51.050;13.678;2023-06-22T07:14:50;7.38;;;6.97;;
49340;SDS011;35209;51.050;13.678;2023-06-22T07:19:52;7.22;;;6.72;;
49340;SDS011;35209;51.050;13.678;2023-06-22T07:24:54;7.55;;;6.97;;
49340;SDS011;35209;51.050;13.678;2023-06-22T07:29:56;7.30;;;6.85;;
49340;SDS011;35209;51.050;13.678;2023-06-22T07:34:58;7.28;;;6.78;;
49340;SDS011;35209;51.050;13.678;2023-06-22T07:40:00;7.07;;;6.50;;
49340;SDS011;35209;51.050;13.678;2023-06-22T07:45:02;7.57;;;6.82;;
49340;SDS011;35209;51.050;13.678;2023-06-22T07:50:05;7.18;;;6.78;;
49340;SDS011;35209;51.050;13.678;2023-06-22T07:55:07;7.45;;;6.95;;
49340;SDS011;35209;51.050;13.678;2023-06-22T08:00:10;7.20;;;6.75;;
49340;SDS011;35209;51.050;13.678;2023-06-22T08:05:17;8.13;;;7.40;;
49340;SDS011;35209;51.050;13.678;2023-06-22T08:10:23;6.85;;;6.15;;
49340;SDS011;35209;51.050;13.678;2023-06-22T08:15:26;6.60;;;6.00;;
49340;SDS011;35209;51.050;13.678;2023-06-22T08:20:28;6.72;;;6.22;;
49340;SDS011;35209;51.050;13.678;2023-06-22T08:25:31;6.10;;;5.57;;
49340;SDS011;35209;51.050;13.678;2023-06-22T08:30:36;5.97;;;5.60;;
49340;SDS011;35209;51.050;13.678;2023-06-22T08:35:38;6.28;;;5.88;;
49340;SDS011;35209;51.050;13.678;2023-06-22T08:40:40;6.25;;;5.65;;
49340;SDS011;35209;51.050;13.678;2023-06-22T08:45:41;6.10;;;5.70;;
49340;SDS011;35209;51.050;13.678;2023-06-22T08:50:45;5.75;;;5.45;;
49340;SDS011;35209;51.050;13.678;2023-06-22T08:55:46;5.50;;;5.20;;
49340;SDS011;35209;51.050;13.678;2023-06-22T09:00:48;8.10;;;5.07;;
49340;SDS011;35209;51.050;13.678;2023-06-22T09:05:50;5.00;;;4.70;;
49340;SDS011;35209;51.050;13.678;2023-06-22T09:10:52;5.05;;;4.75;;
49340;SDS011;35209;51.050;13.678;2023-06-22T09:15:54;5.28;;;4.97;;
49340;SDS011;35209;51.050;13.678;2023-06-22T09:20:55;4.50;;;4.30;;
49340;SDS011;35209;51.050;13.678;2023-06-22T09:25:57;5.20;;;4.80;;
49340;SDS011;35209;51.050;13.678;2023-06-22T09:30:59;5.25;;;4.90;;
49340;SDS011;35209;51.050;13.678;2023-06-22T09:36:02;5.90;;;5.50;;
49340;SDS011;35209;51.050;13.678;2023-06-22T09:41:04;5.10;;;4.80;;
49340;SDS011;35209;51.050;13.678;2023-06-22T09:46:06;7.28;;;6.13;;
49340;SDS011;35209;51.050;13.678;2023-06-22T09:51:08;5.90;;;5.40;;
49340;SDS011;35209;51.050;13.678;2023-06-22T09:56:10;5.72;;;5.32;;
49340;SDS011;35209;51.050;13.678;2023-06-22T10:01:16;5.78;;;5.40;;
49340;SDS011;35209;51.050;13.678;2023-06-22T10:06:18;5.82;;;5.25;;
49340;SDS011;35209;51.050;13.678;2023-06-22T10:11:20;5.28;;;4.97;;
49340;SDS011;35209;51.050;13.678;2023-06-22T10:16:30;4.90;;;4.60;;
49340;SDS011;35209;51.050;13.678;2023-06-22T10:21:32;5.63;;;4.95;;
49340;SDS011;35209;51.050;13.678;2023-06-22T10:26:35;5.65;;;5.35;;
49340;SDS011;35209;51.050;13.678;2023-06-22T10:31:37;5.65;;;5.35;;
49340;SDS011;35209;51.050;13.678;2023-06-22T10:36:39;5.13;;;4.80;;
49340;SDS011;35209;51.050;13.678;2023-06-22T10:41:41;5.38;;;4.88;;
49340;SDS011;35209;51.050;13.678;2023-06-22T10:46:43;5.00;;;4.70;;
49340;SDS011;35209;51.050;13.678;2023-06-22T10:51:44;6.00;;;5.53;;
49340;SDS011;35209;51.050;13.678;2023-06-22T10:56:46;4.85;;;4.55;;
49340;SDS011;35209;51.050;13.678;2023-06-22T11:01:48;6.05;;;5.65;;
49340;SDS011;35209;51.050;13.678;2023-06-22T11:06:50;5.72;;;5.32;;
49340;SDS011;35209;51.050;13.678;2023-06-22T11:11:52;5.90;;;5.50;;
49340;SDS011;35209;51.050;13.678;2023-06-22T11:16:56;5.72;;;5.32;;
49340;SDS011;35209;51.050;13.678;2023-06-22T11:21:58;6.22;;;5.82;;
49340;SDS011;35209;51.050;13.678;2023-06-22T11:27:00;5.30;;;5.00;;
49340;SDS011;35209;51.050;13.678;2023-06-22T11:32:02;5.80;;;5.13;;
49340;SDS011;35209;51.050;13.678;2023-06-22T11:37:04;5.45;;;5.07;;
49340;SDS011;35209;51.050;13.678;2023-06-22T11:42:06;5.70;;;5.40;;
49340;SDS011;35209;51.050;13.678;2023-06-22T11:47:09;5.53;;;5.13;;
49340;SDS011;35209;51.050;13.678;2023-06-22T11:52:11;5.60;;;5.20;;
49340;SDS011;35209;51.050;13.678;2023-06-22T11:57:13;5.38;;;5.07;;
49340;SDS011;35209;51.050;13.678;2023-06-22T12:02:15;5.55;;;5.15;;
49340;SDS011;35209;51.050;13.678;2023-06-22T12:07:17;5.38;;;5.03;;
49340;SDS011;35209;51.050;13.678;2023-06-22T12:12:18;5.53;;;5.22;;
49340;SDS011;35209;51.050;13.678;2023-06-22T12:17:20;5.05;;;4.75;;
49340;SDS011;35209;51.050;13.678;2023-06-22T12:22:22;5.05;;;4.65;;
49340;SDS011;35209;51.050;13.678;2023-06-22T12:27:24;5.32;;;5.03;;
49340;SDS011;35209;51.050;13.678;2023-06-22T12:32:27;5.65;;;5.25;;
49340;SDS011;35209;51.050;13.678;2023-06-22T12:37:28;5.20;;;4.90;;
49340;SDS011;35209;51.050;13.678;2023-06-22T12:42:32;4.70;;;4.43;;
49340;SDS011;35209;51.050;13.678;2023-06-22T12:47:34;6.10;;;5.30;;
49340;SDS011;35209;51.050;13.678;2023-06-22T12:52:36;5.00;;;4.60;;
49340;SDS011;35209;51.050;13.678;2023-06-22T12:57:41;5.30;;;4.90;;
49340;SDS011;35209;51.050;13.678;2023-06-22T13:02:43;4.93;;;4.72;;
49340;SDS011;35209;51.050;13.678;2023-06-22T13:07:44;5.47;;;5.07;;
49340;SDS011;35209;51.050;13.678;2023-06-22T13:12:47;5.45;;;4.95;;
49340;SDS011;35209;51.050;13.678;2023-06-22T13:17:48;5.60;;;5.10;;
49340;SDS011;35209;51.050;13.678;2023-06-22T13:22:50;4.80;;;4.38;;
49340;SDS011;35209;51.050;13.678;2023-06-22T13:27:52;4.90;;;4.60;;
49340;SDS011;35209;51.050;13.678;2023-06-22T13:32:54;5.05;;;4.65;;
49340;SDS011;35209;51.050;13.678;2023-06-22T13:38:09;4.78;;;4.40;;
49340;SDS011;35209;51.050;13.678;2023-06-22T13:43:11;4.90;;;4.60;;
49340;SDS011;35209;51.050;13.678;2023-06-22T13:48:13;4.63;;;4.32;;
49340;SDS011;35209;51.050;13.678;2023-06-22T13:53:15;5.43;;;5.05;;
49340;SDS011;35209;51.050;13.678;2023-06-22T13:58:17;5.07;;;4.68;;
49340;SDS011;35209;51.050;13.678;2023-06-22T14:03:21;5.32;;;4.93;;
49340;SDS011;35209;51.050;13.678;2023-06-22T14:08:22;5.13;;;4.72;;
49340;SDS011;35209;51.050;13.678;2023-06-22T14:13:42;5.93;;;5.43;;
49340;SDS011;35209;51.050;13.678;2023-06-22T14:18:44;5.07;;;4.72;;
49340;SDS011;35209;51.050;13.678;2023-06-22T14:23:46;5.85;;;5.32;;
49340;SDS011;35209;51.050;13.678;2023-06-22T14:28:51;5.28;;;4.97;;
49340;SDS011;35209;51.050;13.678;2023-06-22T14:33:54;5.90;;;5.40;;
49340;SDS011;35209;51.050;13.678;2023-06-22T14:38:56;5.03;;;4.70;;
49340;SDS011;35209;51.050;13.678;2023-06-22T14:43:58;5.40;;;5.10;;
49340;SDS011;35209;51.050;13.678;2023-06-22T14:49:00;5.63;;;5.15;;
49340;SDS011;35209;51.050;13.678;2023-06-22T14:54:01;5.47;;;4.93;;
49340;SDS011;35209;51.050;13.678;2023-06-22T14:59:03;5.60;;;4.60;;
49340;SDS011;35209;51.050;13.678;2023-06-22T15:04:05;5.13;;;4.72;;
49340;SDS011;35209;51.050;13.678;2023-06-22T15:09:07;5.30;;;4.90;;
49340;SDS011;35209;51.050;13.678;2023-06-22T15:14:08;5.90;;;5.45;;
49340;SDS011;35209;51.050;13.678;2023-06-22T15:19:12;6.07;;;5.60;;
49340;SDS011;35209;51.050;13.678;2023-06-22T15:24:14;5.78;;;5.38;;
49340;SDS011;35209;51.050;13.678;2023-06-22T15:29:16;5.63;;;5.22;;
49340;SDS011;35209;51.050;13.678;2023-06-22T15:34:17;7.72;;;5.57;;
49340;SDS011;35209;51.050;13.678;2023-06-22T15:39:20;5.88;;;5.47;;
49340;SDS011;35209;51.050;13.678;2023-06-22T15:44:21;5.70;;;5.40;;
49340;SDS011;35209;51.050;13.678;2023-06-22T15:49:24;5.40;;;5.03;;
49340;SDS011;35209;51.050;13.678;2023-06-22T15:54:26;6.35;;;5.95;;
49340;SDS011;35209;51.050;13.678;2023-06-22T15:59:28;5.20;;;4.90;;
49340;SDS011;35209;51.050;13.678;2023-06-22T16:04:29;6.38;;;5.82;;
49340;SDS011;35209;51.050;13.678;2023-06-22T16:09:31;6.18;;;5.68;;
49340;SDS011;35209;51.050;13.678;2023-06-22T16:14:33;6.65;;;6.05;;
49340;SDS011;35209;51.050;13.678;2023-06-22T16:19:35;7.97;;;6.30;;
49340;SDS011;35209;51.050;13.678;2023-06-22T16:24:37;6.78;;;6.38;;
49340;SDS011;35209;51.050;13.678;2023-06-22T16:29:39;6.75;;;6.35;;
49340;SDS011;35209;51.050;13.678;2023-06-22T16:34:41;7.13;;;6.70;;
49340;SDS011;35209;51.050;13.678;2023-06-22T16:39:42;7.05;;;6.65;;
49340;SDS011;35209;51.050;13.678;2023-06-22T16:44:45;6.35;;;5.85;;
49340;SDS011;35209;51.050;13.678;2023-06-22T16:49:47;6.90;;;6.28;;
49340;SDS011;35209;51.050;13.678;2023-06-22T16:54:50;7.43;;;6.90;;
49340;SDS011;35209;51.050;13.678;2023-06-22T17:00:02;7.38;;;6.90;;
49340;SDS011;35209;51.050;13.678;2023-06-22T17:05:14;7.28;;;6.78;;
49340;SDS011;35209;51.050;13.678;2023-06-22T17:10:16;7.40;;;6.80;;
49340;SDS011;35209;51.050;13.678;2023-06-22T17:15:20;6.88;;;6.32;;
49340;SDS011;35209;51.050;13.678;2023-06-22T17:20:27;7.20;;;6.70;;
49340;SDS011;35209;51.050;13.678;2023-06-22T17:25:32;7.07;;;6.68;;
49340;SDS011;35209;51.050;13.678;2023-06-22T17:30:35;7.13;;;6.53;;
49340;SDS011;35209;51.050;13.678;2023-06-22T17:35:49;8.32;;;7.72;;
49340;SDS011;35209;51.050;13.678;2023-06-22T17:40:59;7.05;;;6.45;;
49340;SDS011;35209;51.050;13.678;2023-06-22T17:46:03;7.30;;;6.80;;
49340;SDS011;35209;51.050;13.678;2023-06-22T17:51:05;7.38;;;6.93;;
49340;SDS011;35209;51.050;13.678;2023-06-22T17:56:07;7.82;;;7.22;;
49340;SDS011;35209;51.050;13.678;2023-06-22T18:01:10;12.40;;;7.63;;
49340;SDS011;35209;51.050;13.678;2023-06-22T18:06:14;7.60;;;6.90;;
49340;SDS011;35209;51.050;13.678;2023-06-22T18:11:17;8.18;;;7.47;;
49340;SDS011;35209;51.050;13.678;2023-06-22T18:16:19;7.47;;;6.90;;
49340;SDS011;35209;51.050;13.678;2023-06-22T18:21:22;7.90;;;7.32;;
49340;SDS011;35209;51.050;13.678;2023-06-22T18:26:25;7.72;;;7.22;;
49340;SDS011;35209;51.050;13.678;2023-06-22T18:31:27;8.52;;;7.82;;
49340;SDS011;35209;51.050;13.678;2023-06-22T18:36:32;8.57;;;7.97;;
49340;SDS011;35209;51.050;13.678;2023-06-22T18:41:39;8.85;;;8.23;;
49340;SDS011;35209;51.050;13.678;2023-06-22T18:46:42;8.13;;;7.60;;
49340;SDS011;35209;51.050;13.678;2023-06-22T18:56:56;9.27;;;8.43;;
49340;SDS011;35209;51.050;13.678;2023-06-22T19:02:02;7.88;;;7.38;;
49340;SDS011;35209;51.050;13.678;2023-06-22T19:07:06;9.43;;;8.80;;
49340;SDS011;35209;51.050;13.678;2023-06-22T19:12:18;9.77;;;9.18;;
49340;SDS011;35209;51.050;13.678;2023-06-22T19:17:22;8.88;;;8.38;;
49340;SDS011;35209;51.050;13.678;2023-06-22T19:22:42;9.40;;;8.52;;
49340;SDS011;35209;51.050;13.678;2023-06-22T19:27:49;9.52;;;8.90;;
49340;SDS011;35209;51.050;13.678;2023-06-22T19:32:55;9.50;;;8.85;;
49340;SDS011;35209;51.050;13.678;2023-06-22T19:37:58;9.57;;;8.98;;
49340;SDS011;35209;51.050;13.678;2023-06-22T19:43:00;10.10;;;9.30;;
49340;SDS011;35209;51.050;13.678;2023-06-22T19:48:02;9.73;;;9.10;;
49340;SDS011;35209;51.050;13.678;2023-06-22T19:53:07;9.90;;;9.20;;
49340;SDS011;35209;51.050;13.678;2023-06-22T19:58:19;9.25;;;8.70;;
49340;SDS011;35209;51.050;13.678;2023-06-22T20:03:25;9.45;;;8.95;;
49340;SDS011;35209;51.050;13.678;2023-06-22T20:08:29;9.52;;;8.85;;
49340;SDS011;35209;51.050;13.678;2023-06-22T20:13:46;8.88;;;8.27;;
49340;SDS011;35209;51.050;13.678;2023-06-22T20:19:05;9.85;;;9.18;;
49340;SDS011;35209;51.050;13.678;2023-06-22T20:24:17;9.07;;;8.52;;
49340;SDS011;35209;51.050;13.678;2023-06-22T20:29:23;9.70;;;9.00;;
49340;SDS011;35209;51.050;13.678;2023-06-22T20:34:32;9.10;;;8.50;;
49340;SDS011;35209;51.050;13.678;2023-06-22T20:39:40;8.25;;;7.65;;
49340;SDS011;35209;51.050;13.678;2023-06-22T20:44:42;9.48;;;8.88;;
49340;SDS011;35209;51.050;13.678;2023-06-22T20:49:46;8.57;;;8.07;;
49340;SDS011;35209;51.050;13.678;2023-06-22T20:54:48;8.43;;;7.93;;
49340;SDS011;35209;51.050;13.678;2023-06-22T20:59:53;9.03;;;8.33;;
49340;SDS011;35209;51.050;13.678;2023-06-22T21:04:54;8.57;;;8.00;;
49340;SDS011;35209;51.050;13.678;2023-06-22T21:09:56;9.50;;;8.90;;
49340;SDS011;35209;51.050;13.678;2023-06-22T21:14:59;9.18;;;8.57;;
49340;SDS011;35209;51.050;13.678;2023-06-22T21:20:00;9.90;;;8.90;;
49340;SDS011;35209;51.050;13.678;2023-06-22T21:25:06;9.23;;;8.73;;
49340;SDS011;35209;51.050;13.678;2023-06-22T21:30:13;9.20;;;8.60;;
49340;SDS011;35209;51.050;13.678;2023-06-22T21:35:16;10.00;;;9.20;;
49340;SDS011;35209;51.050;13.678;2023-06-22T21:40:18;10.35;;;9.75;;
49340;SDS011;35209;51.050;13.678;2023-06-22T21:45:20;12.25;;;11.13;;
49340;SDS011;35209;51.050;13.678;2023-06-22T21:50:22;11.10;;;10.40;;
49340;SDS011;35209;51.050;13.678;2023-06-22T21:55:24;13.63;;;12.52;;
49340;SDS011;35209;51.050;13.678;2023-06-22T22:00:25;12.77;;;11.65;;
49340;SDS011;35209;51.050;13.678;2023-06-22T22:05:27;13.25;;;11.88;;
49340;SDS011;35209;51.050;13.678;2023-06-22T22:10:30;13.48;;;12.57;;
49340;SDS011;35209;51.050;13.678;2023-06-22T22:15:32;14.32;;;13.30;;
49340;SDS011;35209;51.050;13.678;2023-06-22T22:20:35;13.75;;;12.85;;
49340;SDS011;35209;51.050;13.678;2023-06-22T22:25:36;13.95;;;12.95;;
49340;SDS011;35209;51.050;13.678;2023-06-22T22:30:38;14.35;;;13.45;;
49340;SDS011;35209;51.050;13.678;2023-06-22T22:35:40;16.70;;;15.43;;
49340;SDS011;35209;51.050;13.678;2023-06-22T22:40:41;15.95;;;14.98;;
49340;SDS011;35209;51.050;13.678;2023-06-22T22:45:43;16.98;;;15.98;;
49340;SDS011;35209;51.050;13.678;2023-06-22T22:50:45;17.60;;;16.23;;
49340;SDS011;35209;51.050;13.678;2023-06-22T22:55:49;15.27;;;14.13;;
49340;SDS011;35209;51.050;13.678;2023-06-22T23:00:51;11.98;;;10.98;;
49340;SDS011;35209;51.050;13.678;2023-06-22T23:05:53;9.27;;;6.57;;
49340;SDS011;35209;51.050;13.678;2023-06-22T23:10:55;8.77;;;4.72;;
49340;SDS011;35209;51.050;13.678;2023-06-22T23:15:56;8.77;;;4.10;;
49340;SDS011;35209;51.050;13.678;2023-06-22T23:20:58;6.18;;;3.05;;
49340;SDS011;35209;51.050;13.678;2023-06-22T23:26:02;7.18;;;2.67;;
49340;SDS011;35209;51.050;13.678;2023-06-22T23:31:07;3.20;;;1.48;;
49340;SDS011;35209;51.050;13.678;2023-06-22T23:36:10;2.72;;;1.10;;
49340;SDS011;35209;51.050;13.678;2023-06-22T23:41:12;2.72;;;0.98;;
49340;SDS011;35209;51.050;13.678;2023-06-22T23:46:14;1.42;;;0.88;;
49340;SDS011;35209;51.050;13.678;2023-06-22T23:51:15;3.15;;;0.80;;
49340;SDS011;35209;51.050;13.678;2023-06-22T23:56:17;0.80;;;0.60;;
